createdAt,value
2017-08-27T11:18:23.619Z,51.91
2017-08-27T11:20:54.034Z,50.34
2017-08-27T11:23:23.746Z,49.36
2017-08-27T11:25:53.458Z,48.98
2017-08-27T11:28:23.923Z,48.62
2017-08-27T11:30:53.707Z,48.44
2017-08-27T11:33:23.507Z,48.22
2017-08-27T11:35:53.504Z,48.17
2017-08-27T11:38:23.468Z,48.07
2017-08-27T11:40:53.814Z,48.02
2017-08-27T11:43:23.859Z,48.09
2017-08-27T11:45:53.596Z,48.08
2017-08-27T11:48:23.244Z,48.00
2017-08-27T11:50:53.524Z,47.89
2017-08-27T11:53:23.432Z,47.89
2017-08-27T11:55:53.075Z,47.89
2017-08-27T11:58:53.606Z,47.78
2017-08-27T12:01:23.577Z,47.79
2017-08-27T12:03:53.534Z,47.71
2017-08-27T12:06:23.226Z,47.58
2017-08-27T12:08:52.943Z,47.63
2017-08-27T12:11:23.156Z,47.56
2017-08-27T12:13:52.947Z,47.49
2017-08-27T12:16:22.741Z,47.24
2017-08-27T12:18:52.946Z,47.21
2017-08-27T12:21:23.082Z,47.20
2017-08-27T12:23:52.889Z,47.28
2017-08-27T12:26:23.312Z,47.38
2017-08-27T12:28:53.220Z,47.26
2017-08-27T12:31:23.043Z,47.30
2017-08-27T12:33:53.360Z,47.32
2017-08-27T12:36:23.644Z,47.29
2017-08-27T12:38:53.667Z,47.13
2017-08-27T12:41:26.261Z,47.23
2017-08-27T12:43:56.784Z,47.25
2017-08-27T12:46:27.278Z,47.15
2017-08-27T12:48:57.121Z,47.27
2017-08-27T12:51:26.788Z,44.29
2017-08-27T12:53:59.443Z,43.32
2017-08-27T12:56:29.225Z,44.68
2017-08-27T12:58:59.723Z,46.13
2017-08-27T13:01:29.662Z,45.21
2017-08-27T13:03:59.947Z,45.92
2017-08-27T13:06:30.438Z,46.93
2017-08-27T13:09:00.214Z,47.14
2017-08-27T13:11:30.155Z,46.98
2017-08-27T13:14:02.608Z,46.78
2017-08-27T13:16:32.338Z,46.58
2017-08-27T13:19:02.199Z,46.54
2017-08-27T13:21:32.727Z,46.48
2017-08-27T13:24:02.517Z,46.27
2017-08-27T13:26:32.805Z,46.29
2017-08-27T13:29:03.546Z,46.31
2017-08-27T13:31:33.760Z,46.19
2017-08-27T13:34:03.980Z,46.14
2017-08-27T13:36:34.022Z,46.04
2017-08-27T13:39:05.581Z,43.88
2017-08-27T13:41:36.510Z,44.21
2017-08-27T13:44:07.531Z,44.91
2017-08-27T13:46:50.052Z,45.51
2017-08-27T13:49:36.906Z,45.49
2017-08-27T13:52:09.669Z,45.29
2017-08-27T13:54:57.636Z,45.21
2017-08-27T13:57:27.637Z,45.36
2017-08-27T13:59:59.097Z,45.38
2017-08-27T14:02:33.371Z,45.39
2017-08-27T14:05:13.411Z,45.36
2017-08-27T14:07:43.447Z,45.25
2017-08-27T14:10:13.368Z,45.12
2017-08-27T14:12:44.194Z,45.22
2017-08-27T14:15:14.356Z,45.20
2017-08-27T14:17:44.133Z,45.07
2017-08-27T14:20:14.363Z,44.96
2017-08-27T14:22:44.352Z,44.93
2017-08-27T14:25:14.147Z,44.77
2017-08-27T14:27:44.275Z,44.68
2017-08-27T14:30:14.089Z,44.63
2017-08-27T14:32:43.816Z,44.77
2017-08-27T14:35:14.585Z,44.70
2017-08-27T14:37:44.263Z,44.68
2017-08-27T14:40:14.795Z,44.69
2017-08-27T14:42:44.778Z,44.64
2017-08-27T14:45:14.531Z,44.48
2017-08-27T14:47:44.436Z,44.14
2017-08-27T14:50:14.559Z,43.89
2017-08-27T14:52:44.405Z,44.15
2017-08-27T14:55:14.118Z,43.97
2017-08-27T14:57:44.311Z,44.15
2017-08-27T15:00:14.414Z,44.38
2017-08-27T15:02:44.126Z,44.08
2017-08-27T15:05:14.158Z,44.11
2017-08-27T15:07:44.000Z,43.79
2017-08-27T15:10:13.803Z,43.19
2017-08-27T15:12:43.899Z,43.75
2017-08-27T15:15:13.988Z,44.09
2017-08-27T15:17:44.562Z,43.37
2017-08-27T15:20:17.154Z,42.51
2017-08-27T15:22:46.922Z,43.74
2017-08-27T15:25:18.730Z,43.78
2017-08-27T15:27:48.843Z,42.85
2017-08-27T15:30:18.515Z,42.77
2017-08-27T15:32:48.531Z,43.54
2017-08-27T15:35:18.633Z,43.84
2017-08-27T15:37:48.290Z,43.82
2017-08-27T15:40:18.169Z,43.40
2017-08-27T15:42:48.288Z,43.62
2017-08-27T15:45:17.977Z,43.69
2017-08-27T15:47:48.030Z,43.75
2017-08-27T15:50:20.435Z,43.30
2017-08-27T15:52:55.046Z,42.63
2017-08-27T15:55:50.865Z,40.72
2017-08-27T15:58:24.995Z,40.31
2017-08-27T16:01:05.015Z,39.94
2017-08-27T16:04:01.165Z,39.94
2017-08-27T16:06:35.431Z,39.43
2017-08-27T16:09:19.679Z,39.34
2017-08-27T16:11:57.444Z,39.45
2017-08-27T16:14:27.844Z,40.22
2017-08-27T16:16:58.189Z,39.61
2017-08-27T16:19:28.378Z,39.46
2017-08-27T16:21:59.689Z,39.23
2017-08-27T16:24:32.336Z,38.86
2017-08-27T16:27:04.413Z,38.80
2017-08-27T16:29:34.487Z,40.23
2017-08-27T16:32:05.863Z,39.35
2017-08-27T16:34:35.789Z,39.09
2017-08-27T16:37:06.182Z,39.06
2017-08-27T16:39:37.434Z,40.13
2017-08-27T16:42:09.140Z,39.13
2017-08-27T16:44:39.301Z,39.38
2017-08-27T16:47:17.704Z,40.14
2017-08-27T16:49:47.906Z,41.58
2017-08-27T16:52:20.258Z,40.74
2017-08-27T16:54:51.105Z,39.58
2017-08-27T16:57:21.508Z,39.10
2017-08-27T16:59:51.908Z,38.27
2017-08-27T17:02:23.580Z,38.18
2017-08-27T17:04:59.828Z,38.03
2017-08-27T17:07:34.477Z,38.20
2017-08-27T17:10:04.848Z,39.02
2017-08-27T17:12:35.996Z,40.00
2017-08-27T17:15:06.420Z,39.37
2017-08-27T17:17:36.292Z,37.99
2017-08-27T17:20:07.167Z,36.63
2017-08-27T17:22:37.220Z,37.28
2017-08-27T17:25:07.248Z,37.90
2017-08-27T17:27:37.397Z,37.89
2017-08-27T17:30:07.784Z,38.17
2017-08-27T17:32:39.020Z,38.54
2017-08-27T17:35:09.328Z,37.59
2017-08-27T17:37:39.862Z,37.76
2017-08-27T17:40:10.043Z,38.32
2017-08-27T17:42:40.262Z,39.04
2017-08-27T17:45:10.381Z,39.45
2017-08-27T17:47:41.229Z,40.48
2017-08-27T17:50:12.762Z,41.43
2017-08-27T17:52:43.535Z,41.48
2017-08-27T17:55:14.650Z,41.45
2017-08-27T17:57:45.252Z,41.86
2017-08-27T18:00:15.360Z,42.21
2017-08-27T18:02:45.863Z,42.28
2017-08-27T18:05:18.492Z,41.56
2017-08-27T18:07:50.512Z,42.27
2017-08-27T18:10:23.893Z,42.73
2017-08-27T18:12:54.388Z,42.91
2017-08-27T18:15:25.976Z,43.07
2017-08-27T18:17:57.769Z,42.97
2017-08-27T18:20:29.123Z,42.92
2017-08-27T18:23:00.429Z,43.06
2017-08-27T18:25:31.776Z,43.27
2017-08-27T18:28:02.739Z,43.48
2017-08-27T18:30:37.066Z,43.33
2017-08-27T18:33:07.318Z,41.97
2017-08-27T18:35:38.635Z,42.73
2017-08-27T18:38:09.205Z,43.31
2017-08-27T18:40:39.640Z,43.22
2017-08-27T18:43:10.572Z,43.73
2017-08-27T18:45:41.865Z,44.35
2017-08-27T18:48:11.647Z,44.64
2017-08-27T18:50:42.860Z,45.24
2017-08-27T18:55:51.658Z,46.03
2017-08-27T18:58:23.841Z,46.15
2017-08-27T19:00:55.348Z,46.79
2017-08-27T19:03:25.827Z,46.81
2017-08-27T19:05:58.792Z,46.80
2017-08-27T19:08:31.828Z,47.53
2017-08-27T19:11:02.122Z,48.19
2017-08-27T19:13:35.585Z,47.94
2017-08-27T19:16:06.671Z,48.59
2017-08-27T19:18:36.742Z,48.81
2017-08-27T19:21:06.912Z,49.13
2017-08-27T19:23:37.951Z,47.82
2017-08-27T19:26:08.286Z,48.39
2017-08-27T19:28:39.395Z,48.95
2017-08-27T19:31:10.061Z,49.02
2017-08-27T19:33:39.840Z,49.04
2017-08-27T19:36:10.470Z,49.20
2017-08-27T19:38:41.077Z,49.62
2017-08-27T19:41:11.330Z,49.20
2017-08-27T19:43:41.422Z,48.52
2017-08-27T19:46:37.524Z,48.12
2017-08-27T19:49:39.312Z,48.31
2017-08-27T19:52:10.230Z,47.99
2017-08-27T19:54:42.671Z,48.36
2017-08-27T19:57:12.789Z,49.37
2017-08-27T19:59:43.366Z,49.34
2017-08-27T20:02:13.927Z,50.39
2017-08-27T20:04:44.818Z,51.13
2017-08-27T20:15:48.786Z,48.49
2017-08-27T20:21:10.847Z,51.82
2017-08-27T20:23:40.972Z,51.96
2017-08-27T20:26:10.780Z,52.36
2017-08-27T20:28:40.589Z,51.75
2017-08-27T20:31:10.621Z,51.65
2017-08-27T20:33:40.364Z,51.62
2017-08-27T20:36:26.329Z,51.59
2017-08-27T20:38:57.292Z,51.07
2017-08-27T20:41:27.847Z,50.92
2017-08-27T20:44:24.853Z,50.71
2017-08-27T20:47:24.500Z,50.57
2017-08-27T20:50:03.315Z,49.63
2017-08-27T20:55:24.179Z,50.76
2017-08-27T20:57:56.223Z,50.98
2017-08-27T21:00:26.565Z,50.79
2017-08-27T21:03:00.118Z,50.21
2017-08-27T21:05:30.752Z,50.91
2017-08-27T21:08:00.871Z,50.94
2017-08-27T21:10:30.875Z,50.93
2017-08-27T21:13:01.376Z,51.58
2017-08-27T21:15:35.360Z,51.88
2017-08-27T21:18:15.649Z,51.91
2017-08-27T21:21:05.408Z,51.01
2017-08-27T21:23:52.353Z,51.31
2017-08-27T21:26:29.103Z,51.42
2017-08-27T21:29:05.475Z,52.11
2017-08-27T21:31:49.790Z,51.73
2017-08-27T21:34:19.754Z,51.88
2017-08-27T21:36:50.122Z,52.14
2017-08-27T21:39:20.052Z,52.10
2017-08-27T21:41:51.741Z,51.83
2017-08-27T21:44:24.629Z,51.93
2017-08-27T21:46:55.587Z,51.96
2017-08-27T21:49:27.512Z,51.57
2017-08-27T21:52:00.758Z,51.53
2017-08-27T21:54:32.668Z,51.45
2017-08-27T21:57:02.867Z,51.92
2017-08-27T21:59:32.725Z,52.12
2017-08-27T22:02:04.305Z,51.97
2017-08-27T22:04:36.484Z,51.81
2017-08-27T22:07:06.259Z,52.49
2017-08-27T22:09:36.567Z,53.02
2017-08-27T22:12:06.489Z,53.03
2017-08-27T22:14:36.444Z,53.32
2017-08-27T22:17:06.202Z,53.27
2017-08-27T22:19:36.310Z,51.32
2017-08-27T22:22:06.025Z,51.37
2017-08-27T22:24:35.742Z,52.53
2017-08-27T22:27:06.153Z,52.81
2017-08-27T22:29:36.641Z,52.78
2017-08-27T22:32:06.932Z,52.35
2017-08-27T22:34:37.096Z,53.01
2017-08-27T22:37:07.285Z,53.17
2017-08-27T22:39:37.577Z,53.03
2017-08-27T22:42:07.744Z,53.38
2017-08-27T22:44:37.698Z,52.97
2017-08-27T22:47:07.379Z,52.28
2017-08-27T22:49:39.090Z,51.03
2017-08-27T22:52:09.180Z,51.45
2017-08-27T22:54:39.098Z,52.13
2017-08-27T22:57:09.514Z,53.12
2017-08-27T22:59:39.724Z,53.03
2017-08-27T23:02:09.782Z,51.91
2017-08-27T23:04:39.775Z,52.15
2017-08-27T23:07:09.739Z,52.74
2017-08-27T23:09:39.440Z,52.98
2017-08-27T23:12:09.420Z,53.14
2017-08-27T23:14:39.117Z,53.07
2017-08-27T23:17:09.060Z,53.51
2017-08-27T23:19:39.291Z,53.64
2017-08-27T23:22:09.107Z,53.69
2017-08-27T23:24:39.059Z,53.97
2017-08-27T23:27:09.493Z,53.67
2017-08-27T23:29:39.296Z,53.82
2017-08-27T23:32:09.439Z,54.53
2017-08-27T23:34:39.629Z,54.33
2017-08-27T23:37:09.387Z,54.29
2017-08-27T23:39:39.346Z,54.43
2017-08-27T23:42:09.654Z,54.84
2017-08-27T23:44:39.320Z,54.58
2017-08-27T23:47:09.025Z,54.54
2017-08-27T23:49:39.156Z,54.31
2017-08-27T23:52:08.766Z,54.45
2017-08-27T23:54:38.448Z,54.65
2017-08-27T23:57:08.970Z,54.49
2017-08-27T23:59:38.962Z,54.26
